الصفحة الرئيسية
METAR-TAF:

METAR-TAF

مطار :

مطار الحسيمة الشريف الإدريسي

الحسيمة, المغرب

دائرة عرض: 35-11N, خط طول: 003-51W, ارتفاع: 27 متر

مراقبة الطقس الحالي

تاريخ ووقت الإصدار 54 دقيقة قبل الساعة 00:00UTC
ريح 4 عقدة من الجنوب/الجنوب الشرقي
درجة الحرارة 17°درجة مئوية
الرطوبة 63%
ضغط 1014 hPa
الرؤية 10 كم أو أكثر
الغيوم لا تقل 1500 م ولا وجود لمزنة ركامية السحاب الأسود

METAR: GMTA 210000Z 16004KT CAVOK 17/10 Q1014 NOSIG

زمن: 00:54 (00:54 UTC)

توقعات

تاريخ ووقت الإصدار 1ساعة و 54 دقيقة قبل الساعة 23:00UTC
التوقعات صالحة من21 الساعة 00 UTC إلى 22 الساعة 06 UTC
ريح 2 عقدةمن اتجاهات متغيرة
الرؤية: 8000 متر
غيوم قليلة على ارتفاع 3000 قدم

TAF: GMTA 202300Z 2100/2206 VRB02KT 8000 FEW030

أرصاد الطقس والتوقعات من أكثر من 4000 مطار (تقارير الطقس للمطار METAR والتنبؤ بالطقس بالمطارTAF).

المحطات المتاحة هي النقط الصفراء والحمراء على الخريطة.

حرك المؤشر فوق النقطة لمعرفة اسم المحطة.

ثم انقر لمعرفة أرصاد وتوقعات الطقس.

لتغيير الخارطة: اضغط على الأزرار الخضراء مع رمز الصليب الأسود للتكبير. على الزر الأخضر مع شرطة للتصغير، أو على الأسهم الخضراء للخرائط المجاورة.


METAR-TAF: